sensor_id;sensor_type;location;lat;lon;timestamp;P1;durP1;ratioP1;P2;durP2;ratioP2
26536;SDS011;14204;51.262;5.488;2023-09-08T00:01:24;10.70;;;9.23;;
26536;SDS011;14204;51.262;5.488;2023-09-08T00:03:50;11.18;;;9.65;;
26536;SDS011;14204;51.262;5.488;2023-09-08T00:06:16;12.98;;;8.95;;
26536;SDS011;14204;51.262;5.488;2023-09-08T00:08:41;14.27;;;9.80;;
26536;SDS011;14204;51.262;5.488;2023-09-08T00:11:08;10.65;;;9.55;;
26536;SDS011;14204;51.262;5.488;2023-09-08T00:13:34;11.98;;;10.65;;
26536;SDS011;14204;51.262;5.488;2023-09-08T00:15:59;12.93;;;10.25;;
26536;SDS011;14204;51.262;5.488;2023-09-08T00:18:25;11.43;;;9.50;;
26536;SDS011;14204;51.262;5.488;2023-09-08T00:20:51;10.63;;;9.32;;
26536;SDS011;14204;51.262;5.488;2023-09-08T00:23:16;12.30;;;9.57;;
26536;SDS011;14204;51.262;5.488;2023-09-08T00:25:42;12.48;;;9.27;;
26536;SDS011;14204;51.262;5.488;2023-09-08T00:28:08;12.32;;;10.80;;
26536;SDS011;14204;51.262;5.488;2023-09-08T00:30:33;17.75;;;11.25;;
26536;SDS011;14204;51.262;5.488;2023-09-08T00:32:59;11.38;;;10.18;;
26536;SDS011;14204;51.262;5.488;2023-09-08T00:35:25;10.73;;;9.27;;
26536;SDS011;14204;51.262;5.488;2023-09-08T00:37:50;9.82;;;8.85;;
26536;SDS011;14204;51.262;5.488;2023-09-08T00:40:16;12.57;;;10.07;;
26536;SDS011;14204;51.262;5.488;2023-09-08T00:42:42;11.63;;;10.30;;
26536;SDS011;14204;51.262;5.488;2023-09-08T00:45:08;14.65;;;10.90;;
26536;SDS011;14204;51.262;5.488;2023-09-08T00:47:34;12.30;;;10.93;;
26536;SDS011;14204;51.262;5.488;2023-09-08T00:50:01;16.17;;;11.38;;
26536;SDS011;14204;51.262;5.488;2023-09-08T00:52:28;12.02;;;10.82;;
26536;SDS011;14204;51.262;5.488;2023-09-08T00:54:57;13.18;;;10.45;;
26536;SDS011;14204;51.262;5.488;2023-09-08T00:57:24;11.77;;;9.88;;
26536;SDS011;14204;51.262;5.488;2023-09-08T00:59:50;12.77;;;10.70;;
26536;SDS011;14204;51.262;5.488;2023-09-08T01:02:15;12.07;;;9.40;;
26536;SDS011;14204;51.262;5.488;2023-09-08T01:04:41;13.43;;;9.68;;
26536;SDS011;14204;51.262;5.488;2023-09-08T01:07:08;15.20;;;10.57;;
26536;SDS011;14204;51.262;5.488;2023-09-08T01:09:34;12.13;;;10.82;;
26536;SDS011;14204;51.262;5.488;2023-09-08T01:12:02;11.73;;;10.52;;
26536;SDS011;14204;51.262;5.488;2023-09-08T01:14:30;11.88;;;10.65;;
26536;SDS011;14204;51.262;5.488;2023-09-08T01:16:56;12.15;;;10.35;;
26536;SDS011;14204;51.262;5.488;2023-09-08T01:19:22;11.55;;;9.32;;
26536;SDS011;14204;51.262;5.488;2023-09-08T01:26:57;12.15;;;10.98;;
26536;SDS011;14204;51.262;5.488;2023-09-08T01:29:24;12.07;;;10.90;;
26536;SDS011;14204;51.262;5.488;2023-09-08T01:31:51;11.20;;;9.95;;
26536;SDS011;14204;51.262;5.488;2023-09-08T01:34:17;11.95;;;10.38;;
26536;SDS011;14204;51.262;5.488;2023-09-08T01:36:44;13.95;;;11.05;;
26536;SDS011;14204;51.262;5.488;2023-09-08T01:39:10;12.02;;;10.82;;
26536;SDS011;14204;51.262;5.488;2023-09-08T01:41:36;13.07;;;11.77;;
26536;SDS011;14204;51.262;5.488;2023-09-08T01:44:02;15.95;;;12.13;;
26536;SDS011;14204;51.262;5.488;2023-09-08T01:46:33;13.45;;;11.50;;
26536;SDS011;14204;51.262;5.488;2023-09-08T01:48:59;12.10;;;10.20;;
26536;SDS011;14204;51.262;5.488;2023-09-08T01:51:25;15.05;;;11.70;;
26536;SDS011;14204;51.262;5.488;2023-09-08T01:53:51;13.70;;;11.50;;
26536;SDS011;14204;51.262;5.488;2023-09-08T01:56:16;17.65;;;12.50;;
26536;SDS011;14204;51.262;5.488;2023-09-08T01:58:42;14.23;;;12.57;;
26536;SDS011;14204;51.262;5.488;2023-09-08T02:01:07;14.57;;;12.50;;
26536;SDS011;14204;51.262;5.488;2023-09-08T02:03:33;14.68;;;12.50;;
26536;SDS011;14204;51.262;5.488;2023-09-08T02:05:59;13.25;;;11.93;;
26536;SDS011;14204;51.262;5.488;2023-09-08T02:08:25;15.40;;;12.35;;
26536;SDS011;14204;51.262;5.488;2023-09-08T02:10:50;13.30;;;11.82;;
26536;SDS011;14204;51.262;5.488;2023-09-08T02:13:16;17.70;;;12.05;;
26536;SDS011;14204;51.262;5.488;2023-09-08T02:15:42;14.27;;;12.82;;
26536;SDS011;14204;51.262;5.488;2023-09-08T02:18:08;21.20;;;13.98;;
26536;SDS011;14204;51.262;5.488;2023-09-08T02:20:33;16.58;;;14.88;;
26536;SDS011;14204;51.262;5.488;2023-09-08T02:23:04;15.85;;;14.43;;
26536;SDS011;14204;51.262;5.488;2023-09-08T02:25:31;14.57;;;13.18;;
26536;SDS011;14204;51.262;5.488;2023-09-08T02:27:57;13.57;;;12.18;;
26536;SDS011;14204;51.262;5.488;2023-09-08T02:30:23;20.20;;;14.55;;
26536;SDS011;14204;51.262;5.488;2023-09-08T02:32:48;14.90;;;12.77;;
26536;SDS011;14204;51.262;5.488;2023-09-08T02:35:14;14.32;;;12.80;;
26536;SDS011;14204;51.262;5.488;2023-09-08T02:37:40;15.70;;;12.93;;
26536;SDS011;14204;51.262;5.488;2023-09-08T02:40:06;13.80;;;12.10;;
26536;SDS011;14204;51.262;5.488;2023-09-08T02:42:32;13.98;;;12.55;;
26536;SDS011;14204;51.262;5.488;2023-09-08T02:44:58;13.68;;;12.25;;
26536;SDS011;14204;51.262;5.488;2023-09-08T02:47:24;12.30;;;11.13;;
26536;SDS011;14204;51.262;5.488;2023-09-08T02:49:49;12.93;;;11.65;;
26536;SDS011;14204;51.262;5.488;2023-09-08T02:52:15;14.48;;;12.98;;
26536;SDS011;14204;51.262;5.488;2023-09-08T02:54:40;15.75;;;13.43;;
26536;SDS011;14204;51.262;5.488;2023-09-08T02:57:06;14.05;;;12.57;;
26536;SDS011;14204;51.262;5.488;2023-09-08T02:59:32;14.55;;;13.07;;
26536;SDS011;14204;51.262;5.488;2023-09-08T03:01:58;19.48;;;12.23;;
26536;SDS011;14204;51.262;5.488;2023-09-08T03:04:25;15.75;;;13.02;;
26536;SDS011;14204;51.262;5.488;2023-09-08T03:06:50;18.42;;;14.45;;
26536;SDS011;14204;51.262;5.488;2023-09-08T03:09:16;15.73;;;14.10;;
26536;SDS011;14204;51.262;5.488;2023-09-08T03:11:42;17.58;;;12.43;;
26536;SDS011;14204;51.262;5.488;2023-09-08T03:14:07;17.70;;;13.60;;
26536;SDS011;14204;51.262;5.488;2023-09-08T03:16:33;18.40;;;14.25;;
26536;SDS011;14204;51.262;5.488;2023-09-08T03:18:59;21.27;;;14.98;;
26536;SDS011;14204;51.262;5.488;2023-09-08T03:21:24;18.40;;;14.60;;
26536;SDS011;14204;51.262;5.488;2023-09-08T03:23:50;17.27;;;15.57;;
26536;SDS011;14204;51.262;5.488;2023-09-08T03:26:16;16.27;;;14.63;;
26536;SDS011;14204;51.262;5.488;2023-09-08T03:28:42;16.55;;;14.43;;
26536;SDS011;14204;51.262;5.488;2023-09-08T03:31:08;19.27;;;13.50;;
26536;SDS011;14204;51.262;5.488;2023-09-08T03:33:34;17.33;;;13.15;;
26536;SDS011;14204;51.262;5.488;2023-09-08T03:36:00;14.77;;;13.00;;
26536;SDS011;14204;51.262;5.488;2023-09-08T03:38:26;15.70;;;13.00;;
26536;SDS011;14204;51.262;5.488;2023-09-08T03:40:52;15.30;;;11.82;;
26536;SDS011;14204;51.262;5.488;2023-09-08T03:43:18;15.60;;;13.98;;
26536;SDS011;14204;51.262;5.488;2023-09-08T03:45:43;17.05;;;13.68;;
26536;SDS011;14204;51.262;5.488;2023-09-08T03:48:09;16.63;;;13.88;;
26536;SDS011;14204;51.262;5.488;2023-09-08T03:50:35;20.77;;;14.80;;
26536;SDS011;14204;51.262;5.488;2023-09-08T03:53:01;18.15;;;14.20;;
26536;SDS011;14204;51.262;5.488;2023-09-08T03:55:27;17.52;;;15.77;;
26536;SDS011;14204;51.262;5.488;2023-09-08T03:57:52;16.92;;;14.25;;
26536;SDS011;14204;51.262;5.488;2023-09-08T04:00:18;16.40;;;14.55;;
26536;SDS011;14204;51.262;5.488;2023-09-08T04:02:47;14.90;;;13.27;;
26536;SDS011;14204;51.262;5.488;2023-09-08T04:05:16;17.98;;;13.63;;
26536;SDS011;14204;51.262;5.488;2023-09-08T04:07:42;18.23;;;14.80;;
26536;SDS011;14204;51.262;5.488;2023-09-08T04:10:11;19.30;;;14.30;;
26536;SDS011;14204;51.262;5.488;2023-09-08T04:12:38;16.30;;;14.60;;
26536;SDS011;14204;51.262;5.488;2023-09-08T04:15:04;17.98;;;13.43;;
26536;SDS011;14204;51.262;5.488;2023-09-08T04:17:31;15.27;;;12.77;;
26536;SDS011;14204;51.262;5.488;2023-09-08T04:19:57;15.02;;;13.43;;
26536;SDS011;14204;51.262;5.488;2023-09-08T04:22:22;21.42;;;16.20;;
26536;SDS011;14204;51.262;5.488;2023-09-08T04:24:48;16.77;;;15.07;;
26536;SDS011;14204;51.262;5.488;2023-09-08T04:27:14;17.70;;;14.77;;
26536;SDS011;14204;51.262;5.488;2023-09-08T04:29:39;16.42;;;14.50;;
26536;SDS011;14204;51.262;5.488;2023-09-08T04:32:05;15.32;;;13.82;;
26536;SDS011;14204;51.262;5.488;2023-09-08T04:34:37;16.90;;;14.25;;
26536;SDS011;14204;51.262;5.488;2023-09-08T04:37:04;15.38;;;13.80;;
26536;SDS011;14204;51.262;5.488;2023-09-08T04:39:30;16.52;;;12.93;;
26536;SDS011;14204;51.262;5.488;2023-09-08T04:41:56;13.13;;;11.77;;
26536;SDS011;14204;51.262;5.488;2023-09-08T04:44:22;15.95;;;12.93;;
26536;SDS011;14204;51.262;5.488;2023-09-08T04:46:47;15.18;;;13.35;;
26536;SDS011;14204;51.262;5.488;2023-09-08T04:49:13;17.55;;;13.80;;
26536;SDS011;14204;51.262;5.488;2023-09-08T04:51:39;18.90;;;14.13;;
26536;SDS011;14204;51.262;5.488;2023-09-08T04:54:05;15.93;;;14.30;;
26536;SDS011;14204;51.262;5.488;2023-09-08T04:56:30;17.95;;;14.60;;
26536;SDS011;14204;51.262;5.488;2023-09-08T04:58:56;16.63;;;13.90;;
26536;SDS011;14204;51.262;5.488;2023-09-08T05:01:23;15.68;;;12.95;;
26536;SDS011;14204;51.262;5.488;2023-09-08T05:03:49;18.00;;;13.77;;
26536;SDS011;14204;51.262;5.488;2023-09-08T05:06:14;15.40;;;13.65;;
26536;SDS011;14204;51.262;5.488;2023-09-08T05:08:40;17.65;;;14.68;;
26536;SDS011;14204;51.262;5.488;2023-09-08T05:11:06;16.95;;;14.43;;
26536;SDS011;14204;51.262;5.488;2023-09-08T05:13:31;19.02;;;14.90;;
26536;SDS011;14204;51.262;5.488;2023-09-08T05:15:57;18.90;;;16.17;;
26536;SDS011;14204;51.262;5.488;2023-09-08T05:18:25;19.67;;;14.80;;
26536;SDS011;14204;51.262;5.488;2023-09-08T05:20:52;17.67;;;15.52;;
26536;SDS011;14204;51.262;5.488;2023-09-08T05:23:18;19.38;;;16.67;;
26536;SDS011;14204;51.262;5.488;2023-09-08T05:25:44;18.95;;;16.95;;
26536;SDS011;14204;51.262;5.488;2023-09-08T05:28:10;19.88;;;16.45;;
26536;SDS011;14204;51.262;5.488;2023-09-08T05:30:36;16.95;;;15.30;;
26536;SDS011;14204;51.262;5.488;2023-09-08T05:33:01;16.90;;;15.13;;
26536;SDS011;14204;51.262;5.488;2023-09-08T05:35:27;19.15;;;14.90;;
26536;SDS011;14204;51.262;5.488;2023-09-08T05:37:53;14.77;;;13.27;;
26536;SDS011;14204;51.262;5.488;2023-09-08T05:40:18;14.82;;;13.25;;
26536;SDS011;14204;51.262;5.488;2023-09-08T05:42:46;15.40;;;13.27;;
26536;SDS011;14204;51.262;5.488;2023-09-08T05:45:12;19.80;;;13.23;;
26536;SDS011;14204;51.262;5.488;2023-09-08T05:47:37;18.00;;;12.93;;
26536;SDS011;14204;51.262;5.488;2023-09-08T05:50:03;14.57;;;12.20;;
26536;SDS011;14204;51.262;5.488;2023-09-08T05:52:29;18.83;;;12.68;;
26536;SDS011;14204;51.262;5.488;2023-09-08T05:54:55;14.48;;;13.07;;
26536;SDS011;14204;51.262;5.488;2023-09-08T05:57:20;14.68;;;12.75;;
26536;SDS011;14204;51.262;5.488;2023-09-08T05:59:46;14.55;;;12.63;;
26536;SDS011;14204;51.262;5.488;2023-09-08T06:02:12;13.90;;;12.55;;
26536;SDS011;14204;51.262;5.488;2023-09-08T06:04:37;16.67;;;13.90;;
26536;SDS011;14204;51.262;5.488;2023-09-08T06:07:03;17.83;;;13.35;;
26536;SDS011;14204;51.262;5.488;2023-09-08T06:09:29;15.43;;;13.75;;
26536;SDS011;14204;51.262;5.488;2023-09-08T06:11:54;18.38;;;14.80;;
26536;SDS011;14204;51.262;5.488;2023-09-08T06:14:20;16.25;;;13.70;;
26536;SDS011;14204;51.262;5.488;2023-09-08T06:16:45;15.55;;;13.32;;
26536;SDS011;14204;51.262;5.488;2023-09-08T06:19:12;15.27;;;13.73;;
26536;SDS011;14204;51.262;5.488;2023-09-08T06:21:37;18.63;;;14.32;;
26536;SDS011;14204;51.262;5.488;2023-09-08T06:24:03;17.85;;;14.07;;
26536;SDS011;14204;51.262;5.488;2023-09-08T06:26:29;17.75;;;13.52;;
26536;SDS011;14204;51.262;5.488;2023-09-08T06:28:55;16.33;;;14.43;;
26536;SDS011;14204;51.262;5.488;2023-09-08T06:31:20;19.27;;;13.73;;
26536;SDS011;14204;51.262;5.488;2023-09-08T06:33:46;15.48;;;12.52;;
26536;SDS011;14204;51.262;5.488;2023-09-08T06:36:12;16.65;;;12.68;;
26536;SDS011;14204;51.262;5.488;2023-09-08T06:38:38;17.02;;;12.20;;
26536;SDS011;14204;51.262;5.488;2023-09-08T06:41:10;15.15;;;12.98;;
26536;SDS011;14204;51.262;5.488;2023-09-08T06:46:02;20.85;;;14.65;;
26536;SDS011;14204;51.262;5.488;2023-09-08T06:48:28;17.83;;;14.73;;
26536;SDS011;14204;51.262;5.488;2023-09-08T06:50:54;20.65;;;14.82;;
26536;SDS011;14204;51.262;5.488;2023-09-08T06:53:21;18.17;;;14.98;;
26536;SDS011;14204;51.262;5.488;2023-09-08T06:55:48;17.77;;;14.07;;
26536;SDS011;14204;51.262;5.488;2023-09-08T06:58:13;15.77;;;12.27;;
26536;SDS011;14204;51.262;5.488;2023-09-08T07:00:42;24.15;;;15.40;;
26536;SDS011;14204;51.262;5.488;2023-09-08T07:03:08;15.93;;;13.25;;
26536;SDS011;14204;51.262;5.488;2023-09-08T07:05:34;16.13;;;12.30;;
26536;SDS011;14204;51.262;5.488;2023-09-08T07:08:00;15.38;;;12.77;;
26536;SDS011;14204;51.262;5.488;2023-09-08T07:10:26;19.30;;;12.50;;
26536;SDS011;14204;51.262;5.488;2023-09-08T07:12:52;26.75;;;15.65;;
26536;SDS011;14204;51.262;5.488;2023-09-08T07:15:17;17.75;;;14.45;;
26536;SDS011;14204;51.262;5.488;2023-09-08T07:17:43;26.60;;;16.50;;
26536;SDS011;14204;51.262;5.488;2023-09-08T07:20:09;14.50;;;12.88;;
26536;SDS011;14204;51.262;5.488;2023-09-08T07:22:35;18.42;;;15.05;;
26536;SDS011;14204;51.262;5.488;2023-09-08T07:25:01;20.48;;;13.85;;
26536;SDS011;14204;51.262;5.488;2023-09-08T07:27:26;24.45;;;15.65;;
26536;SDS011;14204;51.262;5.488;2023-09-08T07:29:52;22.45;;;16.63;;
26536;SDS011;14204;51.262;5.488;2023-09-08T07:32:18;27.00;;;16.13;;
26536;SDS011;14204;51.262;5.488;2023-09-08T07:34:44;21.58;;;14.82;;
26536;SDS011;14204;51.262;5.488;2023-09-08T07:37:10;20.45;;;13.55;;
26536;SDS011;14204;51.262;5.488;2023-09-08T07:39:35;22.90;;;17.10;;
26536;SDS011;14204;51.262;5.488;2023-09-08T07:42:01;23.25;;;14.75;;
26536;SDS011;14204;51.262;5.488;2023-09-08T07:44:27;27.45;;;17.05;;
26536;SDS011;14204;51.262;5.488;2023-09-08T07:46:53;25.67;;;13.98;;
26536;SDS011;14204;51.262;5.488;2023-09-08T07:49:21;32.03;;;13.68;;
26536;SDS011;14204;51.262;5.488;2023-09-08T07:51:49;20.95;;;13.75;;
26536;SDS011;14204;51.262;5.488;2023-09-08T07:54:14;23.45;;;16.60;;
26536;SDS011;14204;51.262;5.488;2023-09-08T07:56:40;21.08;;;16.48;;
26536;SDS011;14204;51.262;5.488;2023-09-08T07:59:06;20.75;;;15.30;;
26536;SDS011;14204;51.262;5.488;2023-09-08T08:01:32;19.45;;;14.70;;
26536;SDS011;14204;51.262;5.488;2023-09-08T08:03:58;19.88;;;15.65;;
26536;SDS011;14204;51.262;5.488;2023-09-08T08:06:23;19.00;;;13.65;;
26536;SDS011;14204;51.262;5.488;2023-09-08T08:08:49;16.85;;;13.65;;
26536;SDS011;14204;51.262;5.488;2023-09-08T08:11:15;19.95;;;12.98;;
26536;SDS011;14204;51.262;5.488;2023-09-08T08:13:45;16.85;;;11.57;;
26536;SDS011;14204;51.262;5.488;2023-09-08T08:16:11;17.85;;;14.20;;
26536;SDS011;14204;51.262;5.488;2023-09-08T08:18:37;13.63;;;12.23;;
26536;SDS011;14204;51.262;5.488;2023-09-08T08:21:03;15.55;;;13.18;;
26536;SDS011;14204;51.262;5.488;2023-09-08T08:23:29;18.77;;;14.10;;
26536;SDS011;14204;51.262;5.488;2023-09-08T08:25:56;18.70;;;13.00;;
26536;SDS011;14204;51.262;5.488;2023-09-08T08:28:22;18.38;;;15.35;;
26536;SDS011;14204;51.262;5.488;2023-09-08T08:30:49;20.10;;;14.90;;
26536;SDS011;14204;51.262;5.488;2023-09-08T08:33:15;18.15;;;14.02;;
26536;SDS011;14204;51.262;5.488;2023-09-08T08:35:41;15.25;;;13.35;;
26536;SDS011;14204;51.262;5.488;2023-09-08T08:38:13;14.25;;;12.75;;
26536;SDS011;14204;51.262;5.488;2023-09-08T08:40:38;18.80;;;13.95;;
26536;SDS011;14204;51.262;5.488;2023-09-08T08:43:04;16.90;;;13.52;;
26536;SDS011;14204;51.262;5.488;2023-09-08T08:45:30;17.00;;;12.13;;
26536;SDS011;14204;51.262;5.488;2023-09-08T08:47:57;15.57;;;10.88;;
26536;SDS011;14204;51.262;5.488;2023-09-08T08:50:23;15.13;;;11.55;;
26536;SDS011;14204;51.262;5.488;2023-09-08T08:52:49;13.18;;;11.65;;
26536;SDS011;14204;51.262;5.488;2023-09-08T08:55:16;15.93;;;11.90;;
26536;SDS011;14204;51.262;5.488;2023-09-08T08:57:42;12.10;;;10.77;;
26536;SDS011;14204;51.262;5.488;2023-09-08T09:00:09;12.27;;;10.90;;
26536;SDS011;14204;51.262;5.488;2023-09-08T09:02:40;15.32;;;10.48;;
26536;SDS011;14204;51.262;5.488;2023-09-08T09:05:08;14.45;;;12.05;;
26536;SDS011;14204;51.262;5.488;2023-09-08T09:07:36;13.30;;;10.57;;
26536;SDS011;14204;51.262;5.488;2023-09-08T09:10:02;11.80;;;10.60;;
26536;SDS011;14204;51.262;5.488;2023-09-08T09:12:29;13.13;;;10.85;;
26536;SDS011;14204;51.262;5.488;2023-09-08T09:14:58;13.25;;;11.00;;
26536;SDS011;14204;51.262;5.488;2023-09-08T09:17:24;11.00;;;9.82;;
26536;SDS011;14204;51.262;5.488;2023-09-08T09:19:50;11.98;;;10.65;;
26536;SDS011;14204;51.262;5.488;2023-09-08T09:22:36;14.20;;;11.25;;
26536;SDS011;14204;51.262;5.488;2023-09-08T09:25:02;11.02;;;9.85;;
26536;SDS011;14204;51.262;5.488;2023-09-08T09:27:32;11.02;;;9.65;;
26536;SDS011;14204;51.262;5.488;2023-09-08T09:30:02;10.52;;;9.63;;
26536;SDS011;14204;51.262;5.488;2023-09-08T09:32:29;12.05;;;9.73;;
26536;SDS011;14204;51.262;5.488;2023-09-08T09:34:56;13.27;;;11.00;;
26536;SDS011;14204;51.262;5.488;2023-09-08T09:37:23;12.98;;;10.13;;
26536;SDS011;14204;51.262;5.488;2023-09-08T09:39:49;11.30;;;10.23;;
26536;SDS011;14204;51.262;5.488;2023-09-08T09:42:15;12.32;;;10.63;;
26536;SDS011;14204;51.262;5.488;2023-09-08T09:44:42;11.45;;;9.90;;
26536;SDS011;14204;51.262;5.488;2023-09-08T09:47:07;14.43;;;10.90;;
26536;SDS011;14204;51.262;5.488;2023-09-08T09:49:41;12.32;;;10.13;;
26536;SDS011;14204;51.262;5.488;2023-09-08T09:52:14;14.20;;;10.75;;
26536;SDS011;14204;51.262;5.488;2023-09-08T09:54:45;11.60;;;9.73;;
26536;SDS011;14204;51.262;5.488;2023-09-08T09:57:13;10.65;;;9.57;;
26536;SDS011;14204;51.262;5.488;2023-09-08T09:59:42;10.68;;;9.73;;
26536;SDS011;14204;51.262;5.488;2023-09-08T10:02:11;15.90;;;11.82;;
26536;SDS011;14204;51.262;5.488;2023-09-08T10:04:39;15.85;;;11.10;;
26536;SDS011;14204;51.262;5.488;2023-09-08T10:07:06;12.60;;;11.30;;
26536;SDS011;14204;51.262;5.488;2023-09-08T10:09:32;13.65;;;11.20;;
26536;SDS011;14204;51.262;5.488;2023-09-08T10:11:59;11.50;;;10.35;;
26536;SDS011;14204;51.262;5.488;2023-09-08T10:14:38;12.75;;;11.00;;
26536;SDS011;14204;51.262;5.488;2023-09-08T10:17:08;13.80;;;10.50;;
26536;SDS011;14204;51.262;5.488;2023-09-08T10:19:42;11.30;;;10.20;;
26536;SDS011;14204;51.262;5.488;2023-09-08T10:22:11;13.48;;;11.18;;
26536;SDS011;14204;51.262;5.488;2023-09-08T10:24:40;15.77;;;10.85;;
26536;SDS011;14204;51.262;5.488;2023-09-08T10:27:10;14.48;;;12.63;;
26536;SDS011;14204;51.262;5.488;2023-09-08T10:29:37;12.88;;;10.77;;
26536;SDS011;14204;51.262;5.488;2023-09-08T10:32:04;11.90;;;8.65;;
26536;SDS011;14204;51.262;5.488;2023-09-08T10:34:31;10.65;;;9.65;;
26536;SDS011;14204;51.262;5.488;2023-09-08T10:36:59;11.27;;;9.88;;
26536;SDS011;14204;51.262;5.488;2023-09-08T10:47:13;11.05;;;10.05;;
26536;SDS011;14204;51.262;5.488;2023-09-08T10:49:39;11.60;;;10.50;;
26536;SDS011;14204;51.262;5.488;2023-09-08T10:52:09;13.95;;;10.00;;
26536;SDS011;14204;51.262;5.488;2023-09-08T10:54:43;10.50;;;9.50;;
26536;SDS011;14204;51.262;5.488;2023-09-08T10:57:13;17.17;;;8.20;;
26536;SDS011;14204;51.262;5.488;2023-09-08T10:59:56;10.38;;;9.18;;
26536;SDS011;14204;51.262;5.488;2023-09-08T11:02:34;10.20;;;8.95;;
26536;SDS011;14204;51.262;5.488;2023-09-08T11:05:02;10.02;;;9.18;;
26536;SDS011;14204;51.262;5.488;2023-09-08T11:07:30;17.50;;;9.40;;
26536;SDS011;14204;51.262;5.488;2023-09-08T11:09:57;8.82;;;7.93;;
26536;SDS011;14204;51.262;5.488;2023-09-08T11:12:26;10.02;;;8.85;;
26536;SDS011;14204;51.262;5.488;2023-09-08T11:14:52;10.00;;;8.75;;
26536;SDS011;14204;51.262;5.488;2023-09-08T11:17:18;10.38;;;7.63;;
26536;SDS011;14204;51.262;5.488;2023-09-08T11:19:47;10.88;;;9.40;;
26536;SDS011;14204;51.262;5.488;2023-09-08T11:22:14;12.07;;;8.35;;
26536;SDS011;14204;51.262;5.488;2023-09-08T11:24:41;10.57;;;8.73;;
26536;SDS011;14204;51.262;5.488;2023-09-08T11:27:07;13.30;;;8.65;;
26536;SDS011;14204;51.262;5.488;2023-09-08T11:29:34;10.80;;;8.98;;
26536;SDS011;14204;51.262;5.488;2023-09-08T11:32:00;13.95;;;8.63;;
26536;SDS011;14204;51.262;5.488;2023-09-08T11:34:26;9.73;;;8.52;;
26536;SDS011;14204;51.262;5.488;2023-09-08T11:36:53;10.18;;;7.57;;
26536;SDS011;14204;51.262;5.488;2023-09-08T11:39:22;9.18;;;7.95;;
26536;SDS011;14204;51.262;5.488;2023-09-08T11:41:49;11.05;;;8.68;;
26536;SDS011;14204;51.262;5.488;2023-09-08T11:44:16;11.48;;;7.82;;
26536;SDS011;14204;51.262;5.488;2023-09-08T11:46:43;9.65;;;7.85;;
26536;SDS011;14204;51.262;5.488;2023-09-08T11:49:09;9.38;;;7.43;;
26536;SDS011;14204;51.262;5.488;2023-09-08T11:51:35;8.07;;;7.28;;
26536;SDS011;14204;51.262;5.488;2023-09-08T11:54:02;11.30;;;7.57;;
26536;SDS011;14204;51.262;5.488;2023-09-08T11:56:27;9.95;;;7.78;;
26536;SDS011;14204;51.262;5.488;2023-09-08T11:58:53;9.30;;;8.48;;
26536;SDS011;14204;51.262;5.488;2023-09-08T12:01:21;11.23;;;7.88;;
26536;SDS011;14204;51.262;5.488;2023-09-08T12:03:54;10.73;;;7.35;;
26536;SDS011;14204;51.262;5.488;2023-09-08T12:06:23;8.65;;;6.97;;
26536;SDS011;14204;51.262;5.488;2023-09-08T12:08:50;8.00;;;7.25;;
26536;SDS011;14204;51.262;5.488;2023-09-08T12:11:16;9.60;;;7.32;;
26536;SDS011;14204;51.262;5.488;2023-09-08T12:13:42;8.77;;;7.68;;
26536;SDS011;14204;51.262;5.488;2023-09-08T12:16:20;8.68;;;7.88;;
26536;SDS011;14204;51.262;5.488;2023-09-08T12:18:48;8.13;;;7.43;;
26536;SDS011;14204;51.262;5.488;2023-09-08T12:21:15;11.35;;;7.70;;
26536;SDS011;14204;51.262;5.488;2023-09-08T12:23:51;9.65;;;7.82;;
26536;SDS011;14204;51.262;5.488;2023-09-08T12:26:17;11.93;;;7.40;;
26536;SDS011;14204;51.262;5.488;2023-09-08T12:28:44;8.55;;;6.43;;
26536;SDS011;14204;51.262;5.488;2023-09-08T12:31:12;8.30;;;6.90;;
26536;SDS011;14204;51.262;5.488;2023-09-08T12:33:38;7.93;;;6.50;;
26536;SDS011;14204;51.262;5.488;2023-09-08T12:36:14;9.15;;;6.93;;
26536;SDS011;14204;51.262;5.488;2023-09-08T12:38:50;7.93;;;6.80;;
26536;SDS011;14204;51.262;5.488;2023-09-08T12:41:17;8.07;;;6.05;;
26536;SDS011;14204;51.262;5.488;2023-09-08T12:43:43;7.85;;;6.03;;
26536;SDS011;14204;51.262;5.488;2023-09-08T12:46:09;9.85;;;5.88;;
26536;SDS011;14204;51.262;5.488;2023-09-08T12:48:35;9.48;;;6.70;;
26536;SDS011;14204;51.262;5.488;2023-09-08T12:51:00;6.85;;;6.25;;
26536;SDS011;14204;51.262;5.488;2023-09-08T12:53:27;10.85;;;6.60;;
26536;SDS011;14204;51.262;5.488;2023-09-08T12:55:58;10.52;;;7.20;;
26536;SDS011;14204;51.262;5.488;2023-09-08T12:58:24;8.02;;;6.53;;
26536;SDS011;14204;51.262;5.488;2023-09-08T13:00:49;10.95;;;6.80;;
26536;SDS011;14204;51.262;5.488;2023-09-08T13:03:15;11.10;;;7.28;;
26536;SDS011;14204;51.262;5.488;2023-09-08T13:05:41;9.55;;;6.07;;
26536;SDS011;14204;51.262;5.488;2023-09-08T13:08:07;8.50;;;6.70;;
26536;SDS011;14204;51.262;5.488;2023-09-08T13:10:32;9.27;;;7.03;;
26536;SDS011;14204;51.262;5.488;2023-09-08T13:12:58;10.95;;;7.00;;
26536;SDS011;14204;51.262;5.488;2023-09-08T13:15:24;9.18;;;6.60;;
26536;SDS011;14204;51.262;5.488;2023-09-08T13:17:50;8.38;;;6.43;;
26536;SDS011;14204;51.262;5.488;2023-09-08T13:20:16;10.07;;;6.85;;
26536;SDS011;14204;51.262;5.488;2023-09-08T13:22:41;10.18;;;6.68;;
26536;SDS011;14204;51.262;5.488;2023-09-08T13:25:08;8.73;;;6.85;;
26536;SDS011;14204;51.262;5.488;2023-09-08T13:27:34;6.88;;;6.03;;
26536;SDS011;14204;51.262;5.488;2023-09-08T13:30:33;7.32;;;6.65;;
26536;SDS011;14204;51.262;5.488;2023-09-08T13:32:53;6.85;;;6.20;;
26536;SDS011;14204;51.262;5.488;2023-09-08T13:35:20;6.75;;;6.25;;
26536;SDS011;14204;51.262;5.488;2023-09-08T13:37:46;5.95;;;5.35;;
26536;SDS011;14204;51.262;5.488;2023-09-08T13:40:11;8.13;;;6.00;;
26536;SDS011;14204;51.262;5.488;2023-09-08T13:42:38;6.10;;;5.60;;
26536;SDS011;14204;51.262;5.488;2023-09-08T13:45:04;7.95;;;5.95;;
26536;SDS011;14204;51.262;5.488;2023-09-08T13:47:30;10.73;;;5.80;;
26536;SDS011;14204;51.262;5.488;2023-09-08T13:49:56;6.65;;;5.97;;
26536;SDS011;14204;51.262;5.488;2023-09-08T13:52:23;7.65;;;6.78;;
26536;SDS011;14204;51.262;5.488;2023-09-08T13:54:50;7.57;;;6.97;;
26536;SDS011;14204;51.262;5.488;2023-09-08T13:57:16;7.07;;;5.95;;
26536;SDS011;14204;51.262;5.488;2023-09-08T13:59:44;6.30;;;5.65;;
26536;SDS011;14204;51.262;5.488;2023-09-08T14:02:11;6.60;;;5.82;;
26536;SDS011;14204;51.262;5.488;2023-09-08T14:04:37;7.07;;;6.38;;
26536;SDS011;14204;51.262;5.488;2023-09-08T14:07:05;10.63;;;5.90;;
26536;SDS011;14204;51.262;5.488;2023-09-08T14:09:32;10.55;;;6.15;;
26536;SDS011;14204;51.262;5.488;2023-09-08T14:11:57;6.57;;;5.65;;
26536;SDS011;14204;51.262;5.488;2023-09-08T14:14:23;7.63;;;5.53;;
26536;SDS011;14204;51.262;5.488;2023-09-08T14:16:49;10.70;;;6.70;;
26536;SDS011;14204;51.262;5.488;2023-09-08T14:19:15;9.38;;;6.57;;
26536;SDS011;14204;51.262;5.488;2023-09-08T14:21:40;9.02;;;5.78;;
26536;SDS011;14204;51.262;5.488;2023-09-08T14:24:06;9.70;;;5.47;;
26536;SDS011;14204;51.262;5.488;2023-09-08T14:26:32;6.60;;;5.38;;
26536;SDS011;14204;51.262;5.488;2023-09-08T14:28:58;11.75;;;5.95;;
26536;SDS011;14204;51.262;5.488;2023-09-08T14:31:23;7.28;;;5.55;;
26536;SDS011;14204;51.262;5.488;2023-09-08T14:33:49;7.38;;;5.75;;
26536;SDS011;14204;51.262;5.488;2023-09-08T14:36:18;7.53;;;6.45;;
26536;SDS011;14204;51.262;5.488;2023-09-08T14:38:44;9.10;;;6.32;;
26536;SDS011;14204;51.262;5.488;2023-09-08T14:41:10;9.25;;;6.45;;